Time;durP1;ratioP1;P1;durP2;ratioP2;P2;SDS_P1;SDS_P2;PMS_P1;PMS_P2;Temp;Humidity;BMP_temperature;BMP_pressure;BME280_temperature;BME280_humidity;BME280_pressure;Samples;Min_cycle;Max_cycle;Signal;HPM_P1;HPM_P2
2023/02/07 00:01:24;;;;;;;2.15;1.35;;;2.20;99.90;;;;;;4976025;28;20602;-77
2023/02/07 00:03:51;;;;;;;3.78;1.10;;;2.20;99.90;;;;;;4944668;29;20071;-77
2023/02/07 00:06:20;;;;;;;2.25;1.23;;;2.10;99.90;;;;;;4943499;29;20226;-77
2023/02/07 00:08:47;;;;;;;1.50;0.90;;;2.10;99.90;;;;;;4959087;28;20975;-77
2023/02/07 00:11:16;;;;;;;2.00;1.10;;;2.00;99.90;;;;;;4959528;28;20131;-77
2023/02/07 00:13:47;;;;;;;2.25;1.10;;;2.00;99.90;;;;;;4942091;28;20050;-77
2023/02/07 00:16:14;;;;;;;2.10;1.23;;;2.00;99.90;;;;;;4958352;28;20105;-77
2023/02/07 00:18:41;;;;;;;2.72;1.10;;;2.00;99.90;;;;;;4974677;28;20535;-77
2023/02/07 00:21:12;;;;;;;2.08;1.10;;;2.00;99.90;;;;;;4976117;28;20708;-77
2023/02/07 00:23:39;;;;;;;3.20;1.45;;;2.00;99.90;;;;;;4959696;28;20059;-77
2023/02/07 00:26:07;;;;;;;1.60;1.00;;;1.90;99.90;;;;;;4959067;28;20535;-77
2023/02/07 00:28:34;;;;;;;2.22;1.45;;;1.80;99.90;;;;;;4958174;28;20591;-77
2023/02/07 00:31:21;;;;;;;2.38;1.27;;;1.80;99.90;;;;;;4958992;28;20051;-77
2023/02/07 00:33:49;;;;;;;2.58;1.40;;;1.80;99.90;;;;;;4957652;28;20050;-77
2023/02/07 00:36:21;;;;;;;1.90;1.23;;;1.80;99.90;;;;;;4958487;28;20126;-77
2023/02/07 00:38:48;;;;;;;4.32;1.52;;;1.80;99.90;;;;;;4974453;28;20047;-78
2023/02/07 00:41:17;;;;;;;2.58;1.10;;;1.80;99.90;;;;;;4959127;28;20047;-77
2023/02/07 00:43:44;;;;;;;2.33;1.13;;;1.80;99.90;;;;;;4940865;28;20047;-77
2023/02/07 00:46:11;;;;;;;2.25;1.45;;;1.80;99.90;;;;;;4958942;28;20083;-77
2023/02/07 00:48:39;;;;;;;2.55;1.13;;;1.80;99.90;;;;;;4967790;28;20043;-77
2023/02/07 00:51:08;;;;;;;3.05;1.15;;;1.80;99.90;;;;;;4945020;28;20094;-77
2023/02/07 00:53:35;;;;;;;2.53;1.10;;;1.70;99.90;;;;;;4958515;28;20047;-77
2023/02/07 00:56:02;;;;;;;6.78;1.45;;;1.70;99.90;;;;;;4958955;28;20051;-77
2023/02/07 00:58:29;;;;;;;2.83;1.38;;;1.60;99.90;;;;;;4957115;28;20153;-78
2023/02/07 01:00:58;;;;;;;1.85;1.23;;;1.60;99.90;;;;;;4975352;28;20386;-77
2023/02/07 01:03:25;;;;;;;2.72;1.58;;;1.60;99.90;;;;;;4958060;28;20253;-77
2023/02/07 01:05:52;;;;;;;2.40;1.15;;;1.60;99.90;;;;;;4942763;29;20059;-78
2023/02/07 01:08:19;;;;;;;2.33;1.77;;;1.60;99.90;;;;;;4958312;28;20091;-77
2023/02/07 01:10:46;;;;;;;1.42;0.95;;;1.50;99.90;;;;;;4958778;28;20471;-77
2023/02/07 01:13:13;;;;;;;3.05;1.40;;;1.50;99.90;;;;;;4940495;29;20082;-77
2023/02/07 01:15:42;;;;;;;2.15;1.08;;;1.40;99.90;;;;;;4942442;28;20339;-77
2023/02/07 01:18:09;;;;;;;2.08;0.93;;;1.40;99.90;;;;;;4974320;28;20258;-76
2023/02/07 01:20:35;;;;;;;2.78;1.33;;;1.40;99.90;;;;;;4974599;28;20061;-77
2023/02/07 01:23:03;;;;;;;3.33;1.30;;;1.40;99.90;;;;;;4974000;28;20057;-76
2023/02/07 01:25:29;;;;;;;2.70;1.15;;;1.40;99.90;;;;;;4974335;28;20134;-77
2023/02/07 01:27:56;;;;;;;2.58;1.15;;;1.50;99.90;;;;;;4941779;29;20051;-78
2023/02/07 01:30:23;;;;;;;1.80;1.17;;;1.40;99.90;;;;;;4942230;29;20096;-78
2023/02/07 01:32:50;;;;;;;2.65;1.20;;;1.40;99.90;;;;;;4973715;28;20491;-78
2023/02/07 01:35:17;;;;;;;2.13;1.38;;;1.30;99.90;;;;;;4973849;28;20401;-78
2023/02/07 01:37:43;;;;;;;3.53;1.10;;;1.30;99.90;;;;;;4974001;28;20475;-78
2023/02/07 01:40:11;;;;;;;3.42;0.90;;;1.30;99.90;;;;;;4974076;28;20053;-79
2023/02/07 01:42:38;;;;;;;1.80;1.15;;;1.20;99.90;;;;;;4973777;28;20555;-77
2023/02/07 01:45:35;;;;;;;1.83;0.95;;;1.20;99.90;;;;;;4956611;28;20047;-77
2023/02/07 01:48:08;;;;;;;2.40;1.10;;;1.30;99.90;;;;;;4967936;28;20467;-77
2023/02/07 01:50:34;;;;;;;3.20;1.40;;;1.20;99.90;;;;;;4974695;28;20110;-76
2023/02/07 01:53:01;;;;;;;3.20;1.40;;;1.20;99.90;;;;;;4957520;28;20086;-77
2023/02/07 01:55:29;;;;;;;2.75;1.20;;;1.20;99.90;;;;;;4972977;28;20051;-77
2023/02/07 01:57:57;;;;;;;2.90;1.50;;;1.20;99.90;;;;;;4972223;28;20394;-77
2023/02/07 02:00:24;;;;;;;3.83;1.35;;;1.20;99.90;;;;;;4959127;28;20402;-77
2023/02/07 02:02:51;;;;;;;2.97;1.45;;;1.10;99.90;;;;;;4977066;28;20084;-76
2023/02/07 02:05:18;;;;;;;3.65;1.27;;;1.20;99.90;;;;;;4960198;28;20074;-77
2023/02/07 02:07:44;;;;;;;3.33;1.67;;;1.20;99.90;;;;;;4960598;28;20409;-77
2023/02/07 02:10:21;;;;;;;3.03;1.50;;;1.10;99.90;;;;;;4976980;28;20507;-77
2023/02/07 02:12:53;;;;;;;1.77;1.27;;;1.10;99.90;;;;;;4959863;28;20054;-78
2023/02/07 02:15:27;;;;;;;2.10;1.20;;;1.10;99.90;;;;;;4976829;28;20126;-77
2023/02/07 02:18:15;;;;;;;1.77;1.20;;;1.10;99.90;;;;;;4976281;28;20411;-77
2023/02/07 02:20:57;;;;;;;2.95;1.48;;;1.10;99.90;;;;;;4945366;28;20101;-77
2023/02/07 02:23:55;;;;;;;2.42;1.27;;;1.10;99.90;;;;;;4985866;28;20543;-77
2023/02/07 02:26:54;;;;;;;2.28;1.13;;;1.00;99.90;;;;;;4945557;29;20066;-77
2023/02/07 02:29:48;;;;;;;2.42;1.60;;;1.00;99.90;;;;;;4973214;28;20047;-77
2023/02/07 02:32:43;;;;;;;1.45;1.13;;;1.00;99.90;;;;;;4952012;28;20122;-76
2023/02/07 02:35:15;;;;;;;1.95;1.33;;;0.90;99.90;;;;;;4957290;28;20521;-76
2023/02/07 02:37:58;;;;;;;2.70;1.15;;;0.90;99.90;;;;;;4944408;28;20051;-77
2023/02/07 02:40:27;;;;;;;2.17;1.42;;;0.90;99.90;;;;;;4964318;28;20090;-76
2023/02/07 02:43:03;;;;;;;4.03;1.42;;;0.80;99.90;;;;;;4948372;29;20125;-76
2023/02/07 02:45:44;;;;;;;2.72;1.40;;;0.80;99.90;;;;;;4979663;28;20059;-77
2023/02/07 02:48:11;;;;;;;2.85;0.93;;;0.70;99.90;;;;;;4946753;28;20090;-76
2023/02/07 02:50:38;;;;;;;1.73;1.15;;;0.70;99.90;;;;;;4943562;29;20154;-76
2023/02/07 02:53:04;;;;;;;2.00;1.13;;;0.70;99.90;;;;;;4969968;28;20061;-77
2023/02/07 02:55:40;;;;;;;3.85;1.30;;;0.70;99.90;;;;;;4962708;28;20051;-77
2023/02/07 02:58:13;;;;;;;2.05;1.10;;;0.70;99.90;;;;;;4946845;29;20150;-76
2023/02/07 03:00:55;;;;;;;2.15;1.60;;;0.70;99.90;;;;;;4962245;28;20071;-77
2023/02/07 03:03:32;;;;;;;2.72;1.48;;;0.80;99.90;;;;;;4960690;28;20051;-76
2023/02/07 03:06:11;;;;;;;1.77;1.17;;;0.70;99.90;;;;;;4962087;28;20103;-76
2023/02/07 03:08:59;;;;;;;1.58;0.95;;;0.60;99.90;;;;;;4946176;29;20134;-76
2023/02/07 03:11:26;;;;;;;2.45;1.60;;;0.60;99.90;;;;;;4961404;28;20612;-77
2023/02/07 03:14:06;;;;;;;2.55;1.38;;;0.50;99.90;;;;;;4960883;28;20133;-76
2023/02/07 03:16:40;;;;;;;2.13;1.23;;;0.50;99.90;;;;;;4947892;28;20050;-76
2023/02/07 03:19:19;;;;;;;2.25;1.20;;;0.50;99.90;;;;;;4962051;28;20137;-77
2023/02/07 03:22:09;;;;;;;2.10;1.17;;;0.40;99.90;;;;;;4978396;28;20082;-75
2023/02/07 03:24:38;;;;;;;2.45;1.20;;;0.40;99.90;;;;;;4962633;28;20051;-76
2023/02/07 03:27:06;;;;;;;3.70;1.35;;;0.50;99.90;;;;;;4981579;28;20102;-75
2023/02/07 03:29:34;;;;;;;3.00;1.38;;;0.60;99.90;;;;;;4980669;28;20054;-76
2023/02/07 03:32:03;;;;;;;2.42;1.20;;;0.50;99.90;;;;;;4981495;28;20075;-76
2023/02/07 03:34:41;;;;;;;3.25;2.10;;;0.40;99.90;;;;;;4962348;28;20538;-76
2023/02/07 03:37:07;;;;;;;2.00;1.45;;;0.30;99.90;;;;;;4961518;28;20081;-76
2023/02/07 03:39:34;;;;;;;2.67;1.40;;;0.20;99.90;;;;;;4947322;29;20070;-76
2023/02/07 03:42:11;;;;;;;2.60;2.35;;;0.20;99.90;;;;;;4946161;29;20090;-76
2023/02/07 03:44:38;;;;;;;3.55;1.70;;;0.30;99.90;;;;;;4959678;28;20620;-76
2023/02/07 03:47:05;;;;;;;3.20;1.75;;;0.40;99.90;;;;;;4962328;28;20063;-76
2023/02/07 03:49:31;;;;;;;4.53;2.05;;;0.50;99.90;;;;;;4947213;29;20468;-77
2023/02/07 03:51:58;;;;;;;4.22;2.00;;;0.60;99.90;;;;;;4962092;28;20684;-78
2023/02/07 03:54:25;;;;;;;5.30;2.38;;;0.70;99.90;;;;;;4978031;28;20047;-76
2023/02/07 03:56:51;;;;;;;5.13;1.92;;;0.80;99.90;;;;;;4977605;28;20053;-76
2023/02/07 03:59:18;;;;;;;3.72;2.20;;;0.80;99.90;;;;;;4944792;29;20062;-77
2023/02/07 04:01:45;;;;;;;5.53;2.13;;;0.80;99.90;;;;;;4977987;28;20053;-76
2023/02/07 04:04:12;;;;;;;5.65;2.50;;;0.80;99.90;;;;;;4946799;29;20621;-76
2023/02/07 04:06:38;;;;;;;5.18;2.70;;;0.90;99.90;;;;;;4978114;28;20047;-77
2023/02/07 04:09:05;;;;;;;4.30;2.80;;;0.90;99.90;;;;;;4978307;28;20078;-76
2023/02/07 04:11:32;;;;;;;6.68;2.92;;;0.80;99.90;;;;;;4977666;28;20083;-79
2023/02/07 04:14:00;;;;;;;4.68;2.25;;;0.80;99.90;;;;;;4960517;28;20051;-77
2023/02/07 04:16:26;;;;;;;4.70;2.58;;;0.70;99.90;;;;;;4978096;28;20095;-77
2023/02/07 04:18:53;;;;;;;5.75;3.30;;;0.70;99.90;;;;;;4980804;28;20047;-77
2023/02/07 04:21:20;;;;;;;5.85;2.30;;;0.70;99.90;;;;;;4951004;29;20059;-77
2023/02/07 04:23:46;;;;;;;5.13;2.50;;;0.70;99.90;;;;;;4981014;28;20086;-76
2023/02/07 04:26:13;;;;;;;3.70;2.00;;;0.70;99.90;;;;;;4949202;29;20093;-76
2023/02/07 04:28:40;;;;;;;3.63;2.15;;;0.70;99.90;;;;;;4980223;28;20677;-76
2023/02/07 04:31:07;;;;;;;3.25;2.10;;;0.70;99.90;;;;;;4965257;28;20051;-76
2023/02/07 04:33:34;;;;;;;8.25;2.78;;;0.60;99.90;;;;;;4964554;28;20551;-76
2023/02/07 04:36:01;;;;;;;3.60;2.60;;;0.50;99.90;;;;;;4971932;28;20051;-77
2023/02/07 04:38:28;;;;;;;6.18;3.05;;;0.50;99.90;;;;;;4969354;28;20093;-76
2023/02/07 04:41:03;;;;;;;4.82;2.45;;;0.50;99.90;;;;;;4969868;28;20064;-76
2023/02/07 04:43:30;;;;;;;4.53;2.67;;;0.50;99.90;;;;;;4973020;28;20129;-77
2023/02/07 04:45:57;;;;;;;4.80;2.72;;;0.40;99.90;;;;;;4964921;28;20055;-77
2023/02/07 04:48:24;;;;;;;4.22;2.33;;;0.50;99.90;;;;;;4980776;28;20096;-76
2023/02/07 04:50:50;;;;;;;5.30;3.30;;;0.40;99.90;;;;;;4964993;28;20051;-78
2023/02/07 04:53:17;;;;;;;4.88;2.50;;;0.40;99.90;;;;;;4980572;28;20408;-76
2023/02/07 04:55:48;;;;;;;4.00;2.47;;;0.30;99.90;;;;;;4965019;28;20058;-76
2023/02/07 04:58:15;;;;;;;4.40;2.40;;;0.30;99.90;;;;;;4963488;28;20055;-76
2023/02/07 05:00:42;;;;;;;4.55;2.55;;;0.30;99.90;;;;;;4948791;29;20159;-75
2023/02/07 05:03:08;;;;;;;4.07;2.20;;;0.40;99.90;;;;;;4980339;28;20082;-76
2023/02/07 05:05:39;;;;;;;5.93;2.97;;;0.40;99.90;;;;;;4964585;28;20138;-77
2023/02/07 05:08:06;;;;;;;4.38;2.72;;;0.40;99.90;;;;;;4949619;29;20051;-76
2023/02/07 05:10:33;;;;;;;4.72;2.50;;;0.40;99.90;;;;;;4950074;29;20086;-76
2023/02/07 05:13:00;;;;;;;6.25;3.10;;;0.50;99.90;;;;;;4979024;28;20051;-76
2023/02/07 05:15:26;;;;;;;5.07;2.97;;;0.50;99.90;;;;;;4980716;28;20070;-76
2023/02/07 05:17:53;;;;;;;6.65;3.22;;;0.40;99.90;;;;;;4949407;29;20558;-76
2023/02/07 05:20:20;;;;;;;4.88;2.88;;;0.40;99.90;;;;;;4948366;29;20090;-78
2023/02/07 05:22:46;;;;;;;5.97;3.58;;;0.40;99.90;;;;;;4964046;28;20054;-76
2023/02/07 05:25:13;;;;;;;7.20;3.60;;;0.50;99.90;;;;;;4948700;28;20047;-76
2023/02/07 05:27:42;;;;;;;7.13;3.45;;;0.50;99.90;;;;;;4946910;29;20044;-76
2023/02/07 05:30:09;;;;;;;6.22;3.10;;;0.50;99.90;;;;;;4946415;28;20051;-76
2023/02/07 05:35:21;;;;;;;8.25;3.58;;;0.50;99.90;;;;;;4947559;29;20070;-76
2023/02/07 05:37:48;;;;;;;6.10;3.33;;;0.60;99.90;;;;;;4947608;29;20043;-76
2023/02/07 05:40:15;;;;;;;7.40;3.88;;;0.60;99.90;;;;;;4978861;28;20059;-77
2023/02/07 05:42:41;;;;;;;7.15;3.75;;;0.50;99.90;;;;;;4977025;28;20058;-74
2023/02/07 05:45:08;;;;;;;5.93;3.92;;;0.40;99.90;;;;;;4971680;28;20047;-76
2023/02/07 05:47:35;;;;;;;6.68;3.40;;;0.40;99.90;;;;;;4958513;28;20174;-76
2023/02/07 05:50:02;;;;;;;5.53;3.25;;;0.40;99.90;;;;;;4956586;28;20085;-77
2023/02/07 05:52:29;;;;;;;4.30;2.88;;;0.40;99.90;;;;;;4957029;28;20058;-75
2023/02/07 05:54:55;;;;;;;6.88;3.60;;;0.40;99.90;;;;;;4941878;29;20055;-78
2023/02/07 05:57:22;;;;;;;5.47;2.70;;;0.40;99.90;;;;;;4951035;28;20086;-75
2023/02/07 05:59:49;;;;;;;5.95;3.55;;;0.30;99.90;;;;;;4937427;28;20066;-76
2023/02/07 06:02:16;;;;;;;6.30;3.17;;;0.30;99.90;;;;;;4933759;28;20153;-78
2023/02/07 06:04:43;;;;;;;4.45;2.80;;;0.20;99.90;;;;;;4934187;28;20115;-78
2023/02/07 06:07:09;;;;;;;4.63;2.90;;;0.20;99.90;;;;;;4949017;28;20061;-78
2023/02/07 06:09:36;;;;;;;5.55;2.63;;;0.30;99.90;;;;;;4968154;28;20062;-77
2023/02/07 06:12:03;;;;;;;5.05;2.38;;;0.20;99.90;;;;;;4970165;28;20051;-77
2023/02/07 06:14:30;;;;;;;6.07;2.65;;;0.10;99.90;;;;;;4937364;28;20113;-77
2023/02/07 06:16:57;;;;;;;3.13;2.40;;;0.10;99.90;;;;;;4955273;28;20605;-77
2023/02/07 06:19:24;;;;;;;5.55;2.90;;;0.10;99.90;;;;;;4966177;28;20138;-77
2023/02/07 06:21:52;;;;;;;4.57;2.50;;;0.10;99.90;;;;;;4960801;28;20142;-77
2023/02/07 06:24:21;;;;;;;3.78;2.38;;;0.10;99.90;;;;;;4966657;28;20202;-77
2023/02/07 06:26:48;;;;;;;4.32;2.30;;;0.10;99.90;;;;;;4948136;28;20055;-77
2023/02/07 06:29:14;;;;;;;4.57;3.63;;;0.00;99.90;;;;;;4937430;29;20466;-77
2023/02/07 06:31:41;;;;;;;5.55;2.63;;;0.00;99.90;;;;;;4930830;29;20265;-77
2023/02/07 06:34:08;;;;;;;3.33;2.00;;;0.00;99.90;;;;;;4963036;28;20051;-77
2023/02/07 06:36:35;;;;;;;5.40;3.08;;;0.00;99.90;;;;;;4913905;29;20149;-77
2023/02/07 06:39:02;;;;;;;3.83;2.33;;;0.10;99.90;;;;;;4915888;29;20047;-77
2023/02/07 06:41:29;;;;;;;3.95;2.50;;;0.10;99.90;;;;;;4951102;28;20043;-77
2023/02/07 06:43:55;;;;;;;7.78;3.70;;;0.10;99.90;;;;;;4952283;28;20071;-77
2023/02/07 06:46:22;;;;;;;4.90;2.50;;;0.10;99.90;;;;;;4938894;28;20141;-77
2023/02/07 06:48:49;;;;;;;4.10;2.63;;;0.00;99.90;;;;;;4937762;28;20077;-77
2023/02/07 06:51:16;;;;;;;4.57;2.92;;;0.00;99.90;;;;;;4934604;29;20062;-76
2023/02/07 06:53:43;;;;;;;6.18;3.00;;;0.00;99.90;;;;;;4934037;28;20051;-76
2023/02/07 06:56:10;;;;;;;5.75;2.92;;;0.00;99.90;;;;;;4968449;28;20462;-76
2023/02/07 06:58:36;;;;;;;5.28;3.25;;;-0.10;99.90;;;;;;4932994;28;20218;-76
2023/02/07 07:01:03;;;;;;;4.80;2.70;;;-0.20;99.90;;;;;;4936954;28;20236;-77
2023/02/07 07:03:30;;;;;;;6.65;3.25;;;-0.30;99.90;;;;;;4937147;28;20853;-76
2023/02/07 07:05:57;;;;;;;5.65;3.60;;;-0.40;99.90;;;;;;4937362;29;20050;-76
2023/02/07 07:08:24;;;;;;;3.92;2.80;;;-0.50;99.90;;;;;;4934891;29;20053;-76
2023/02/07 07:10:52;;;;;;;4.38;2.85;;;-0.50;99.90;;;;;;4944168;28;20047;-77
2023/02/07 07:13:19;;;;;;;4.03;2.55;;;-0.50;99.90;;;;;;4961141;28;20055;-76
2023/02/07 07:15:46;;;;;;;5.22;3.38;;;-0.50;99.90;;;;;;4956017;28;21287;-76
2023/02/07 07:18:13;;;;;;;5.25;2.95;;;-0.40;99.90;;;;;;4953548;28;20396;-77
2023/02/07 07:20:40;;;;;;;4.40;2.30;;;-0.30;99.90;;;;;;4953263;28;20817;-77
2023/02/07 07:23:06;;;;;;;5.63;2.83;;;-0.30;99.90;;;;;;4955209;28;20130;-77
2023/02/07 07:25:33;;;;;;;4.25;2.40;;;-0.30;99.90;;;;;;4971936;28;20082;-77
2023/02/07 07:28:00;;;;;;;6.28;2.75;;;-0.30;99.90;;;;;;4925195;29;20051;-77
2023/02/07 07:30:27;;;;;;;4.15;2.60;;;-0.30;99.90;;;;;;4945426;28;20043;-77
2023/02/07 07:32:54;;;;;;;4.03;2.08;;;-0.30;99.90;;;;;;4941700;29;20575;-78
2023/02/07 07:35:21;;;;;;;4.43;2.40;;;-0.30;99.90;;;;;;4959415;28;20403;-77
2023/02/07 07:37:48;;;;;;;4.18;2.40;;;-0.30;99.90;;;;;;4967299;28;20061;-76
2023/02/07 07:40:14;;;;;;;4.68;2.20;;;-0.30;99.90;;;;;;4955442;28;20569;-76
2023/02/07 07:42:41;;;;;;;6.47;2.97;;;-0.30;99.90;;;;;;4943799;28;20062;-76
2023/02/07 07:45:09;;;;;;;4.18;2.30;;;-0.30;99.90;;;;;;4974193;28;20067;-77
2023/02/07 07:47:36;;;;;;;4.47;2.88;;;-0.30;99.90;;;;;;4945146;28;20059;-78
2023/02/07 07:50:03;;;;;;;3.58;2.28;;;-0.30;99.90;;;;;;4958936;28;20039;-78
2023/02/07 07:52:30;;;;;;;3.05;1.90;;;-0.30;99.90;;;;;;4960730;28;20138;-78
2023/02/07 07:54:56;;;;;;;3.42;2.00;;;-0.30;99.90;;;;;;4946730;29;20165;-77
2023/02/07 07:57:26;;;;;;;6.22;2.53;;;-0.30;99.90;;;;;;4948279;28;20157;-77
2023/02/07 07:59:54;;;;;;;4.80;2.40;;;-0.20;99.90;;;;;;4961096;28;20047;-77
2023/02/07 08:02:21;;;;;;;4.75;2.22;;;-0.20;99.90;;;;;;4978142;28;20047;-78
2023/02/07 08:04:48;;;;;;;4.95;2.50;;;-0.20;99.90;;;;;;4959103;28;20518;-77
2023/02/07 08:07:16;;;;;;;4.85;3.05;;;-0.20;99.90;;;;;;4944837;29;20051;-77
2023/02/07 08:09:42;;;;;;;7.38;3.65;;;-0.20;99.90;;;;;;4978876;28;20523;-77
2023/02/07 08:12:09;;;;;;;3.60;2.20;;;-0.20;99.90;;;;;;4962742;28;20055;-77
2023/02/07 08:14:36;;;;;;;4.38;2.38;;;-0.10;99.90;;;;;;4946536;29;20089;-77
2023/02/07 08:17:03;;;;;;;3.42;2.78;;;-0.10;99.90;;;;;;4948599;28;20138;-77
2023/02/07 08:19:29;;;;;;;3.47;2.08;;;0.00;99.90;;;;;;4943556;29;20062;-77
2023/02/07 08:21:56;;;;;;;3.47;2.03;;;0.10;99.90;;;;;;4955206;28;20091;-77
2023/02/07 08:24:23;;;;;;;4.95;3.30;;;0.10;99.90;;;;;;4978222;28;20127;-77
2023/02/07 08:26:50;;;;;;;9.32;2.95;;;0.20;99.90;;;;;;4946370;29;20087;-78
2023/02/07 08:29:17;;;;;;;5.07;3.05;;;0.30;99.90;;;;;;4945449;29;20043;-77
2023/02/07 08:31:43;;;;;;;4.15;2.60;;;0.40;99.90;;;;;;4962860;28;20060;-76
2023/02/07 08:34:10;;;;;;;5.15;3.20;;;0.40;99.90;;;;;;4977333;28;20051;-77
2023/02/07 08:36:38;;;;;;;3.60;2.40;;;0.40;99.90;;;;;;4947310;28;20047;-77
2023/02/07 08:39:05;;;;;;;2.80;1.90;;;0.40;99.90;;;;;;4952469;28;20127;-78
2023/02/07 08:41:32;;;;;;;3.58;2.53;;;0.40;99.90;;;;;;4937632;28;20340;-77
2023/02/07 08:43:59;;;;;;;4.53;2.78;;;0.50;99.90;;;;;;4943307;28;20079;-77
2023/02/07 08:46:25;;;;;;;4.15;2.15;;;0.50;99.90;;;;;;4943004;29;20650;-78
2023/02/07 08:48:54;;;;;;;4.22;1.90;;;0.40;99.90;;;;;;4943856;29;20054;-77
2023/02/07 08:51:20;;;;;;;4.35;2.15;;;0.40;99.90;;;;;;4965086;28;20240;-77
2023/02/07 08:53:47;;;;;;;3.95;1.95;;;0.30;99.90;;;;;;4959933;28;20604;-76
2023/02/07 08:56:14;;;;;;;3.30;1.92;;;0.30;99.90;;;;;;4981542;28;20046;-77
2023/02/07 08:58:41;;;;;;;3.38;1.88;;;0.30;99.90;;;;;;4942656;28;20051;-76
2023/02/07 09:01:10;;;;;;;2.40;1.42;;;0.20;99.90;;;;;;4944714;29;20070;-77
2023/02/07 09:03:37;;;;;;;3.72;1.98;;;0.30;99.90;;;;;;4960238;28;20048;-77
2023/02/07 09:06:04;;;;;;;3.60;2.47;;;0.30;99.90;;;;;;4944454;29;20071;-76
2023/02/07 09:08:31;;;;;;;1.92;1.35;;;0.30;99.90;;;;;;4940157;28;20138;-76
2023/02/07 09:10:58;;;;;;;2.85;1.50;;;0.30;99.90;;;;;;4944640;29;20107;-76
2023/02/07 09:13:25;;;;;;;2.70;1.70;;;0.30;99.90;;;;;;4909446;29;20142;-78
2023/02/07 09:15:55;;;;;;;3.78;1.73;;;0.30;99.90;;;;;;4943586;28;20151;-76
2023/02/07 09:18:25;;;;;;;2.67;1.73;;;0.30;99.90;;;;;;4969677;28;20073;-76
2023/02/07 09:20:52;;;;;;;2.50;1.58;;;0.50;99.90;;;;;;4961652;28;20506;-77
2023/02/07 09:23:19;;;;;;;3.20;1.40;;;0.60;99.90;;;;;;4959904;28;20050;-76
2023/02/07 09:25:46;;;;;;;3.88;2.10;;;0.70;99.90;;;;;;4967702;28;20134;-76
2023/02/07 09:28:13;;;;;;;4.90;2.58;;;0.90;99.90;;;;;;4990547;28;20427;-76
2023/02/07 09:30:44;;;;;;;3.97;2.42;;;1.00;99.90;;;;;;4945923;29;20359;-77
2023/02/07 09:33:11;;;;;;;5.03;2.75;;;1.20;99.90;;;;;;4961068;28;20051;-76
2023/02/07 09:35:42;;;;;;;5.47;2.58;;;1.30;99.90;;;;;;4946398;29;20059;-77
2023/02/07 09:38:12;;;;;;;4.47;2.58;;;1.50;99.90;;;;;;4961147;28;20118;-77
2023/02/07 09:40:39;;;;;;;4.05;2.38;;;1.60;99.90;;;;;;4945811;29;20134;-77
2023/02/07 09:43:12;;;;;;;4.00;2.30;;;1.70;99.90;;;;;;4945095;29;20138;-77
2023/02/07 09:45:41;;;;;;;3.72;1.73;;;1.80;99.90;;;;;;4977647;28;20051;-77
2023/02/07 09:48:24;;;;;;;5.13;2.42;;;1.90;99.90;;;;;;4960838;28;20139;-76
2023/02/07 09:50:53;;;;;;;3.38;1.85;;;1.90;99.90;;;;;;4961310;28;20065;-77
2023/02/07 09:53:42;;;;;;;2.92;2.13;;;2.00;99.90;;;;;;4944519;28;20352;-77
2023/02/07 09:56:09;;;;;;;4.80;2.88;;;2.10;99.90;;;;;;4960930;28;20382;-76
2023/02/07 09:58:51;;;;;;;3.45;2.17;;;2.10;99.90;;;;;;4975703;28;20051;-76
2023/02/07 10:01:26;;;;;;;3.85;2.65;;;2.30;99.90;;;;;;4945245;29;20059;-76
2023/02/07 10:04:05;;;;;;;3.08;1.98;;;2.40;99.90;;;;;;4956305;28;20110;-77
2023/02/07 10:06:31;;;;;;;6.50;3.60;;;2.60;99.90;;;;;;4943427;29;20114;-77
2023/02/07 10:08:59;;;;;;;4.32;2.80;;;2.70;99.90;;;;;;4960148;28;20102;-77
2023/02/07 10:11:36;;;;;;;6.55;3.20;;;2.70;99.90;;;;;;4939680;29;20094;-77
2023/02/07 10:14:23;;;;;;;5.25;2.92;;;2.70;99.90;;;;;;4967556;28;20063;-76
2023/02/07 10:17:06;;;;;;;5.47;3.40;;;2.80;99.90;;;;;;4924603;29;20247;-77
2023/02/07 10:20:31;;;;;;;4.82;3.13;;;2.90;99.90;;;;;;4965908;28;20051;-77
2023/02/07 10:23:14;;;;;;;5.30;3.10;;;3.10;99.90;;;;;;4941833;29;20094;-78
2023/02/07 10:26:08;;;;;;;4.43;2.97;;;3.20;99.90;;;;;;4925245;29;20585;-77
2023/02/07 10:28:47;;;;;;;5.35;3.30;;;3.40;99.90;;;;;;4942645;29;20051;-77
2023/02/07 10:31:18;;;;;;;5.70;2.60;;;3.50;99.90;;;;;;4942774;29;20134;-77
2023/02/07 10:33:54;;;;;;;4.93;2.90;;;3.50;99.90;;;;;;4956189;28;20051;-77
2023/02/07 10:36:21;;;;;;;4.85;2.88;;;3.50;99.90;;;;;;4960353;28;20044;-77
2023/02/07 10:38:55;;;;;;;4.05;2.60;;;3.50;99.90;;;;;;4958308;28;20091;-78
2023/02/07 10:41:39;;;;;;;4.65;3.03;;;3.60;99.90;;;;;;4969799;28;20062;-77
2023/02/07 10:44:13;;;;;;;5.13;2.65;;;3.50;99.90;;;;;;4971705;28;20051;-77
2023/02/07 10:46:41;;;;;;;4.20;2.97;;;3.60;99.90;;;;;;4946557;28;20051;-76
2023/02/07 10:49:20;;;;;;;5.57;3.13;;;3.60;99.90;;;;;;4955397;28;20062;-76
2023/02/07 10:51:51;;;;;;;4.53;2.55;;;3.50;99.90;;;;;;4956240;28;20518;-76
2023/02/07 10:54:23;;;;;;;5.70;3.15;;;3.50;99.90;;;;;;4944138;29;20059;-76
2023/02/07 10:56:57;;;;;;;4.80;2.90;;;3.40;99.90;;;;;;4974149;28;20459;-77
2023/02/07 10:59:31;;;;;;;4.88;2.58;;;3.40;99.90;;;;;;4980230;28;20055;-77
2023/02/07 11:01:58;;;;;;;5.10;2.75;;;3.50;99.90;;;;;;4960938;28;20403;-77
2023/02/07 11:04:36;;;;;;;4.63;2.70;;;3.60;99.90;;;;;;4971875;28;20570;-77
2023/02/07 11:07:04;;;;;;;4.82;3.15;;;3.60;99.90;;;;;;4972804;28;20062;-77
2023/02/07 11:09:36;;;;;;;7.47;5.65;;;3.70;99.90;;;;;;4956332;28;20050;-76
2023/02/07 11:12:18;;;;;;;8.88;4.75;;;3.70;99.90;;;;;;4955393;28;20141;-76
2023/02/07 11:15:02;;;;;;;7.75;5.03;;;3.80;99.90;;;;;;4957496;28;20138;-77
2023/02/07 11:17:28;;;;;;;7.53;4.32;;;3.90;99.90;;;;;;4969897;28;20055;-77
2023/02/07 11:19:55;;;;;;;6.35;3.70;;;4.00;99.90;;;;;;4953945;28;20337;-76
2023/02/07 11:22:23;;;;;;;6.20;3.70;;;4.10;99.90;;;;;;4970092;28;20079;-77
2023/02/07 11:24:51;;;;;;;5.93;3.47;;;4.20;99.90;;;;;;4917753;28;20055;-77
2023/02/07 11:27:21;;;;;;;5.35;3.70;;;4.30;99.90;;;;;;4951855;28;20147;-76
2023/02/07 11:29:57;;;;;;;4.57;2.78;;;4.50;99.90;;;;;;4952116;28;20048;-77
2023/02/07 11:32:25;;;;;;;5.20;3.30;;;4.60;99.90;;;;;;4950603;28;20415;-77
2023/02/07 11:34:56;;;;;;;4.55;3.33;;;4.70;99.90;;;;;;4936676;28;20353;-76
2023/02/07 11:37:33;;;;;;;5.72;3.53;;;4.90;99.90;;;;;;4959904;28;20109;-77
2023/02/07 11:40:18;;;;;;;4.93;2.83;;;5.10;99.90;;;;;;4954125;28;20126;-77
2023/02/07 11:42:58;;;;;;;4.07;2.47;;;5.30;99.90;;;;;;4942953;28;20047;-76
2023/02/07 11:45:25;;;;;;;4.25;2.53;;;5.50;99.90;;;;;;4974834;28;20614;-77
2023/02/07 11:47:54;;;;;;;4.32;2.40;;;5.60;99.90;;;;;;4959342;28;20153;-77
2023/02/07 11:50:24;;;;;;;4.30;2.63;;;5.70;99.90;;;;;;4974289;28;20051;-76
2023/02/07 11:52:53;;;;;;;3.17;2.13;;;5.90;99.90;;;;;;4970170;28;20051;-77
2023/02/07 11:55:34;;;;;;;5.38;3.17;;;6.10;99.90;;;;;;4938154;29;20138;-77
2023/02/07 11:58:28;;;;;;;4.10;2.35;;;6.40;99.90;;;;;;4967337;28;20083;-77
2023/02/07 12:00:56;;;;;;;4.05;2.42;;;6.70;99.90;;;;;;4962236;28;20138;-77
2023/02/07 12:03:26;;;;;;;3.17;2.38;;;7.00;99.90;;;;;;4958257;28;20145;-77
2023/02/07 12:05:55;;;;;;;3.80;2.30;;;7.30;99.90;;;;;;4973756;28;20066;-77
2023/02/07 12:08:23;;;;;;;3.28;2.42;;;7.60;99.90;;;;;;4929841;28;20054;-77
2023/02/07 12:10:56;;;;;;;3.28;2.15;;;7.90;99.90;;;;;;4975102;28;20051;-77
2023/02/07 12:13:38;;;;;;;2.15;1.77;;;8.20;99.90;;;;;;4969966;28;20078;-77
2023/02/07 12:16:16;;;;;;;3.00;1.75;;;8.50;99.90;;;;;;4928155;29;20134;-77
2023/02/07 12:18:47;;;;;;;3.97;2.10;;;8.80;99.90;;;;;;4956692;28;20101;-77
2023/02/07 12:21:32;;;;;;;3.05;1.52;;;9.10;99.90;;;;;;4973556;28;20061;-76
2023/02/07 12:24:00;;;;;;;3.60;2.00;;;9.30;99.90;;;;;;4954706;28;20047;-77
2023/02/07 12:26:33;;;;;;;2.63;1.75;;;9.60;99.90;;;;;;4971131;28;20135;-77
2023/02/07 12:29:35;;;;;;;2.50;1.25;;;9.80;99.90;;;;;;4970682;28;20197;-76
2023/02/07 12:32:11;;;;;;;2.78;1.42;;;10.00;99.90;;;;;;4924169;29;20424;-76
2023/02/07 12:34:53;;;;;;;2.72;1.50;;;10.30;99.90;;;;;;4970951;28;20079;-77
2023/02/07 12:37:29;;;;;;;3.23;1.73;;;10.50;99.90;;;;;;4949057;28;20537;-77
2023/02/07 12:40:18;;;;;;;3.20;1.30;;;10.70;99.90;;;;;;4938609;29;20050;-77
2023/02/07 12:42:56;;;;;;;3.08;1.65;;;10.90;99.90;;;;;;4944009;28;20062;-77
2023/02/07 12:45:39;;;;;;;3.65;1.60;;;11.20;99.90;;;;;;4973292;28;20725;-77
2023/02/07 12:48:38;;;;;;;3.72;2.03;;;11.50;99.90;;;;;;4945981;29;20078;-77
2023/02/07 12:51:14;;;;;;;3.42;1.80;;;11.80;99.90;;;;;;4954767;28;20146;-77
2023/02/07 12:53:52;;;;;;;2.80;1.73;;;12.10;99.90;;;;;;4943583;29;20069;-77
2023/02/07 12:56:43;;;;;;;3.17;1.55;;;12.40;99.90;;;;;;4973395;28;20048;-76
2023/02/07 12:59:11;;;;;;;3.58;2.15;;;12.40;99.90;;;;;;4945525;28;20058;-77
2023/02/07 13:02:00;;;;;;;3.53;1.42;;;12.50;99.90;;;;;;4946697;28;20412;-78
2023/02/07 13:04:53;;;;;;;2.67;1.27;;;12.80;99.90;;;;;;4942138;29;20051;-77
2023/02/07 13:07:27;;;;;;;3.17;1.67;;;13.00;99.90;;;;;;4959756;28;20282;-78
2023/02/07 13:10:14;;;;;;;2.78;1.60;;;13.10;99.90;;;;;;4961972;28;20451;-77
2023/02/07 13:13:03;;;;;;;3.42;1.88;;;13.30;99.90;;;;;;4972823;28;20059;-77
2023/02/07 13:15:55;;;;;;;1.67;1.02;;;13.20;99.90;;;;;;4947669;29;20051;-78
2023/02/07 13:18:34;;;;;;;2.30;1.38;;;13.50;99.90;;;;;;4973125;28;20074;-77